Time;durP1;ratioP1;P1;durP2;ratioP2;P2;SDS_P1;SDS_P2;PMS_P1;PMS_P2;Temp;Humidity;BMP_temperature;BMP_pressure;BME280_temperature;BME280_humidity;BME280_pressure;Samples;Min_cycle;Max_cycle;Signal;HPM_P1;HPM_P2
2024/03/03 00:00:45;;;;;;;37.60;18.60;;;;;;;2.08;71.65;99631.69;107267;1256;60074;-39
2024/03/03 00:03:13;;;;;;;44.60;20.20;;;;;;;2.04;71.57;99628.18;107218;1256;73842;-39
2024/03/03 00:05:41;;;;;;;37.20;17.90;;;;;;;2.01;71.35;99626.55;107213;1256;66345;-40
2024/03/03 00:08:08;;;;;;;32.30;18.70;;;;;;;2.00;71.77;99621.53;107212;1256;71952;-39
2024/03/03 00:10:36;;;;;;;40.60;20.00;;;;;;;2.00;71.96;99620.36;107278;1256;60460;-39
2024/03/03 00:13:04;;;;;;;39.10;19.40;;;;;;;1.96;72.02;99616.41;107260;1256;60187;-39
2024/03/03 00:15:32;;;;;;;38.80;19.30;;;;;;;1.89;72.09;99611.05;107242;1256;73851;-39
2024/03/03 00:17:59;;;;;;;50.00;21.70;;;;;;;1.86;72.28;99611.41;107303;1256;67657;-39
2024/03/03 00:20:28;;;;;;;57.10;26.80;;;;;;;1.85;72.38;99611.86;107190;1256;72706;-39
2024/03/03 00:22:56;;;;;;;50.60;20.90;;;;;;;1.87;72.26;99611.67;107251;1257;60427;-39
2024/03/03 00:25:23;;;;;;;34.50;17.50;;;;;;;1.85;72.13;99610.64;107245;1260;60436;-39
2024/03/03 00:27:51;;;;;;;34.40;17.50;;;;;;;1.81;72.37;99610.55;107256;1256;73795;-38
2024/03/03 00:30:19;;;;;;;38.80;18.70;;;;;;;1.74;72.88;99610.09;107233;1256;66664;-39
2024/03/03 00:32:46;;;;;;;32.40;18.20;;;;;;;1.63;72.78;99604.29;107218;1260;72705;-39
2024/03/03 00:35:14;;;;;;;34.50;18.70;;;;;;;1.54;73.07;99601.88;107265;1256;60444;-38
2024/03/03 00:37:42;;;;;;;57.40;23.80;;;;;;;1.50;73.24;99598.42;107269;1256;60755;-39
2024/03/03 00:40:10;;;;;;;46.80;21.40;;;;;;;1.51;73.23;99601.57;107156;1256;73871;-39
2024/03/03 00:42:38;;;;;;;32.90;17.40;;;;;;;1.50;73.27;99596.04;107244;1257;67573;-39
2024/03/03 00:45:06;;;;;;;42.00;18.70;;;;;;;1.46;73.65;99598.49;107231;1256;72620;-38
2024/03/03 00:47:34;;;;;;;42.60;19.40;;;;;;;1.42;73.97;99600.80;107211;1256;60486;-39
2024/03/03 00:50:02;;;;;;;40.10;18.40;;;;;;;1.39;74.02;99602.33;107285;1256;60524;-39
2024/03/03 00:52:30;;;;;;;32.40;18.40;;;;;;;1.33;74.13;99598.71;107014;1259;74338;-38
2024/03/03 00:54:58;;;;;;;33.90;17.30;;;;;;;1.29;74.22;99599.38;107128;1256;66280;-39
2024/03/03 00:57:25;;;;;;;37.80;18.70;;;;;;;1.28;74.61;99597.83;107207;1257;71455;-39
2024/03/03 00:59:53;;;;;;;41.10;17.60;;;;;;;1.29;74.52;99599.05;107255;1256;60325;-39
2024/03/03 01:02:20;;;;;;;33.90;18.80;;;;;;;1.25;74.56;99600.17;107181;1256;59607;-39
2024/03/03 01:04:50;;;;;;;35.50;18.20;;;;;;;1.19;74.89;99597.02;107132;1256;73826;-39
2024/03/03 01:07:17;;;;;;;34.20;17.50;;;;;;;1.16;74.91;99592.84;106319;1256;1003725;-39
2024/03/03 01:09:45;;;;;;;38.20;17.80;;;;;;;1.14;75.14;99598.02;107219;1257;71826;-39
2024/03/03 01:12:13;;;;;;;41.60;17.40;;;;;;;1.16;75.27;99595.11;107133;1256;60883;-38
2024/03/03 01:14:40;;;;;;;37.20;17.40;;;;;;;1.17;75.26;99596.35;107254;1256;60473;-38
2024/03/03 01:17:08;;;;;;;40.80;18.90;;;;;;;1.17;75.15;99599.08;107355;1256;72537;-40
2024/03/03 01:19:36;;;;;;;35.30;18.30;;;;;;;1.16;75.35;99597.34;107344;1256;66261;-40
2024/03/03 01:22:04;;;;;;;32.10;17.50;;;;;;;1.15;75.45;99601.73;107261;1256;72793;-40
2024/03/03 01:24:31;;;;;;;33.40;15.90;;;;;;;1.15;75.65;99597.41;107237;1256;60894;-40
2024/03/03 01:27:00;;;;;;;28.80;15.80;;;;;;;1.17;75.40;99598.98;107251;1256;60297;-40
2024/03/03 01:29:28;;;;;;;32.10;15.50;;;;;;;1.21;75.30;99596.25;107271;1256;73858;-39
2024/03/03 01:31:56;;;;;;;35.90;16.90;;;;;;;1.24;75.20;99595.77;107228;1256;66892;-40
2024/03/03 01:34:25;;;;;;;35.80;16.90;;;;;;;1.23;75.20;99596.75;107278;1256;71427;-40
2024/03/03 01:36:53;;;;;;;43.90;17.80;;;;;;;1.19;75.12;99596.17;107285;1256;59381;-40
2024/03/03 01:39:21;;;;;;;36.00;17.80;;;;;;;1.17;75.33;99596.84;107277;1256;59638;-39
2024/03/03 01:41:48;;;;;;;31.40;17.30;;;;;;;1.13;74.99;99601.66;107170;1256;74243;-40
2024/03/03 01:44:16;;;;;;;38.00;16.80;;;;;;;1.11;75.50;99599.68;107192;1256;68205;-40
2024/03/03 01:46:43;;;;;;;34.80;16.80;;;;;;;1.11;75.29;99604.37;107116;1256;72413;-40
2024/03/03 01:49:12;;;;;;;35.70;18.40;;;;;;;1.07;75.42;99605.05;107099;1256;60422;-40
2024/03/03 01:51:40;;;;;;;29.30;16.20;;;;;;;1.02;75.66;99607.86;107315;1256;60036;-40
2024/03/03 01:54:08;;;;;;;47.00;23.30;;;;;;;0.99;75.71;99608.39;107041;1257;73851;-40
2024/03/03 01:56:35;;;;;;;40.00;20.90;;;;;;;0.96;75.88;99605.98;107094;1256;67586;-39
2024/03/03 01:59:03;;;;;;;35.70;16.70;;;;;;;0.98;75.94;99605.84;106993;1256;72667;-40
2024/03/03 02:01:31;;;;;;;33.20;16.60;;;;;;;0.99;75.74;99602.84;106983;1256;60584;-40
2024/03/03 02:03:59;;;;;;;30.90;15.60;;;;;;;0.95;75.94;99598.10;107166;1256;60469;-40
2024/03/03 02:06:30;;;;;;;32.50;16.60;;;;;;;0.95;76.21;99603.39;107098;1256;73822;-40
2024/03/03 02:08:57;;;;;;;41.10;20.00;;;;;;;0.92;76.52;99602.36;107280;1256;67582;-40
2024/03/03 02:11:25;;;;;;;36.40;16.80;;;;;;;0.91;76.82;99598.59;106479;1256;1003070;-40
2024/03/03 02:13:53;;;;;;;34.10;18.00;;;;;;;0.92;76.91;99595.67;107194;1258;60435;-40
2024/03/03 02:16:21;;;;;;;33.10;15.70;;;;;;;0.95;77.10;99599.27;107162;1256;60741;-40
2024/03/03 02:18:48;;;;;;;32.50;16.30;;;;;;;0.98;77.42;99596.60;107261;1256;73871;-40
2024/03/03 02:21:21;;;;;;;37.40;15.10;;;;;;;0.99;77.41;99594.02;107075;1256;67530;-40
2024/03/03 02:23:49;;;;;;;32.10;15.80;;;;;;;1.01;77.69;99599.77;107198;1257;71441;-40
2024/03/03 02:26:18;;;;;;;30.80;16.40;;;;;;;1.03;77.66;99596.75;107158;1256;60846;-40
2024/03/03 02:28:46;;;;;;;36.00;15.80;;;;;;;1.05;77.33;99591.73;107057;1256;60727;-40
2024/03/03 02:31:13;;;;;;;31.00;16.10;;;;;;;1.11;77.32;99592.09;107061;1256;72632;-40
2024/03/03 02:33:42;;;;;;;33.80;15.90;;;;;;;1.16;77.28;99593.50;107280;1256;67132;-40
2024/03/03 02:36:11;;;;;;;30.30;15.30;;;;;;;1.17;77.24;99592.95;107237;1256;70750;-40
2024/03/03 02:38:48;;;;;;;22.50;12.70;;;;;;;1.15;77.21;99593.84;107232;1256;60412;-39
2024/03/03 02:41:16;;;;;;;34.70;16.40;;;;;;;1.16;77.36;99593.23;107172;1256;60189;-39
2024/03/03 02:43:43;;;;;;;32.80;16.20;;;;;;;1.19;77.22;99592.05;107262;1256;72555;-40
2024/03/03 02:46:13;;;;;;;34.60;16.40;;;;;;;1.27;77.32;99591.72;107260;1256;67920;-40
2024/03/03 02:48:41;;;;;;;38.50;17.70;;;;;;;1.33;77.16;99592.69;107148;1256;73813;-39
2024/03/03 02:51:09;;;;;;;38.60;17.00;;;;;;;1.34;77.07;99593.48;107050;1256;60188;-40
2024/03/03 02:53:36;;;;;;;34.70;16.60;;;;;;;1.35;76.96;99592.45;107213;1256;61086;-40
2024/03/03 02:56:07;;;;;;;35.40;15.90;;;;;;;1.35;76.98;99587.68;107127;1256;74306;-39
2024/03/03 02:58:34;;;;;;;31.40;14.40;;;;;;;1.38;77.00;99596.77;107065;1256;66322;-39
2024/03/03 03:01:02;;;;;;;36.00;15.20;;;;;;;1.42;76.90;99592.49;107240;1256;72710;-40
2024/03/03 03:03:31;;;;;;;29.90;15.20;;;;;;;1.46;76.99;99594.88;107221;1256;60204;-39
2024/03/03 03:05:58;;;;;;;30.10;15.40;;;;;;;1.48;76.75;99593.88;107121;1256;60481;-39
2024/03/03 03:08:26;;;;;;;38.60;17.00;;;;;;;1.49;76.63;99592.70;107197;1256;73849;-40
2024/03/03 03:10:54;;;;;;;35.60;16.10;;;;;;;1.48;76.80;99592.38;107229;1256;66599;-40
2024/03/03 03:13:21;;;;;;;33.00;16.10;;;;;;;1.47;76.88;99593.63;107286;1260;72501;-39
2024/03/03 03:15:49;;;;;;;29.10;15.20;;;;;;;1.49;76.71;99595.09;107082;1256;60289;-39
2024/03/03 03:18:17;;;;;;;31.80;15.80;;;;;;;1.53;76.74;99598.22;107106;1262;60364;-40
2024/03/03 03:20:45;;;;;;;32.30;16.00;;;;;;;1.55;76.52;99597.64;107215;1261;72657;-39
2024/03/03 03:23:12;;;;;;;32.50;17.00;;;;;;;1.57;76.70;99597.89;107296;1256;67887;-39
2024/03/03 03:25:40;;;;;;;38.00;16.70;;;;;;;1.58;76.76;99595.98;107246;1257;72632;-40
2024/03/03 03:28:07;;;;;;;36.70;16.50;;;;;;;1.61;76.73;99599.52;107263;1256;60923;-40
2024/03/03 03:30:35;;;;;;;35.30;16.70;;;;;;;1.63;76.29;99599.29;107205;1256;60312;-39
2024/03/03 03:33:03;;;;;;;37.20;16.10;;;;;;;1.64;76.47;99600.75;107249;1256;72644;-39
2024/03/03 03:35:30;;;;;;;30.30;16.00;;;;;;;1.63;76.44;99605.58;107239;1260;67571;-40
2024/03/03 03:37:58;;;;;;;31.80;16.80;;;;;;;1.59;76.62;99603.14;107295;1256;71472;-39
2024/03/03 03:40:26;;;;;;;34.30;16.00;;;;;;;1.55;76.76;99600.38;107251;1256;60528;-39
2024/03/03 03:42:53;;;;;;;27.10;16.00;;;;;;;1.54;76.84;99595.76;107239;1256;60934;-40
2024/03/03 03:45:21;;;;;;;36.70;17.50;;;;;;;1.57;76.92;99597.02;107246;1256;72348;-40
2024/03/03 03:47:49;;;;;;;36.30;17.80;;;;;;;1.60;76.87;99598.40;107222;1256;67627;-39
2024/03/03 03:50:16;;;;;;;33.50;15.70;;;;;;;1.59;76.98;99596.63;107183;1256;73178;-39
2024/03/03 03:52:44;;;;;;;35.70;18.20;;;;;;;1.53;76.87;99593.46;107163;1256;60350;-39
2024/03/03 03:55:11;;;;;;;41.50;17.90;;;;;;;1.50;77.07;99596.50;107102;1256;59580;-39
2024/03/03 03:57:39;;;;;;;52.90;23.40;;;;;;;1.48;77.33;99592.05;107157;1256;72851;-39
2024/03/03 04:00:09;;;;;;;36.20;17.90;;;;;;;1.56;77.32;99588.87;107249;1260;67432;-39
2024/03/03 04:02:40;;;;;;;33.20;17.60;;;;;;;1.64;77.22;99590.70;107148;1256;71368;-40
2024/03/03 04:05:08;;;;;;;37.50;17.00;;;;;;;1.66;76.99;99594.58;107213;1256;61088;-40
2024/03/03 04:07:37;;;;;;;39.30;19.10;;;;;;;1.61;76.94;99597.27;105756;1256;1003790;-40
2024/03/03 04:10:05;;;;;;;33.50;17.90;;;;;;;1.57;77.14;99592.34;107203;1256;73679;-40
2024/03/03 04:12:33;;;;;;;37.10;18.30;;;;;;;1.53;77.16;99591.80;107221;1256;66272;-40
2024/03/03 04:15:01;;;;;;;35.90;16.80;;;;;;;1.55;77.17;99590.55;107208;1259;71403;-40
2024/03/03 04:17:28;;;;;;;37.60;18.00;;;;;;;1.55;77.13;99583.48;107241;1257;60429;-40
2024/03/03 04:19:56;;;;;;;41.20;20.30;;;;;;;1.59;77.16;99589.56;107261;1260;60309;-40
2024/03/03 04:22:23;;;;;;;53.80;23.60;;;;;;;1.56;77.31;99586.89;107227;1256;73222;-39
2024/03/03 04:24:51;;;;;;;39.00;18.90;;;;;;;1.56;77.30;99587.37;107138;1256;67496;-39
2024/03/03 04:27:18;;;;;;;36.00;16.90;;;;;;;1.57;77.47;99587.14;107242;1257;72754;-39
2024/03/03 04:29:47;;;;;;;30.40;14.90;;;;;;;1.61;77.39;99591.49;107186;1257;60418;-39
2024/03/03 04:32:14;;;;;;;20.90;12.00;;;;;;;1.61;77.34;99589.25;107327;1256;60387;-40
2024/03/03 04:34:42;;;;;;;35.10;18.10;;;;;;;1.59;77.24;99592.90;107208;1256;72677;-39
2024/03/03 04:37:10;;;;;;;34.60;17.70;;;;;;;1.57;77.34;99591.10;107252;1256;67870;-39
2024/03/03 04:39:38;;;;;;;38.90;16.80;;;;;;;1.57;77.47;99595.69;107257;1256;72706;-40
2024/03/03 04:42:05;;;;;;;30.30;15.30;;;;;;;1.62;77.40;99594.69;107251;1262;60514;-39
2024/03/03 04:44:33;;;;;;;33.50;16.00;;;;;;;1.69;77.45;99598.05;107257;1256;60300;-39
2024/03/03 04:47:00;;;;;;;31.40;16.10;;;;;;;1.71;77.00;99599.77;107244;1261;74023;-39
2024/03/03 04:49:28;;;;;;;34.00;17.00;;;;;;;1.70;77.19;99592.84;107202;1256;67944;-40
2024/03/03 04:51:55;;;;;;;32.50;16.70;;;;;;;1.73;77.46;99594.02;106469;1256;1003807;-39
2024/03/03 04:54:23;;;;;;;37.20;15.60;;;;;;;1.75;77.10;99596.65;107194;1256;60591;-39
2024/03/03 04:56:51;;;;;;;34.10;16.00;;;;;;;1.78;77.22;99596.98;107207;1260;60500;-40
2024/03/03 04:59:18;;;;;;;33.50;15.90;;;;;;;1.83;77.10;99598.55;107153;1262;73835;-40
2024/03/03 05:01:46;;;;;;;27.40;15.70;;;;;;;1.85;76.88;99599.89;107261;1256;66438;-39
2024/03/03 05:04:13;;;;;;;33.00;16.30;;;;;;;1.83;76.87;99600.64;107105;1256;72670;-39
2024/03/03 05:06:44;;;;;;;35.30;16.80;;;;;;;1.83;77.02;99606.18;107071;1256;60240;-40
2024/03/03 05:09:12;;;;;;;38.90;17.10;;;;;;;1.82;76.69;99604.98;106984;1256;184776;-39
2024/03/03 05:13:35;;;;;;;34.00;16.50;;;;;;;1.88;76.58;99607.64;104219;1294;600414;-40
2024/03/03 05:16:02;;;;;;;34.70;18.10;;;;;;;1.87;76.75;99606.16;106651;1264;59264;-40
2024/03/03 05:18:30;;;;;;;34.90;16.50;;;;;;;1.86;76.90;99606.29;106637;1264;59603;-40
2024/03/03 05:20:57;;;;;;;35.60;15.70;;;;;;;1.89;76.88;99606.13;106749;1263;71165;-40
2024/03/03 05:23:25;;;;;;;31.70;14.00;;;;;;;1.94;76.73;99603.41;106772;1264;67565;-40
2024/03/03 05:25:53;;;;;;;34.30;16.00;;;;;;;1.98;76.55;99600.12;106623;1265;72784;-40
2024/03/03 05:28:20;;;;;;;33.60;16.40;;;;;;;2.02;76.46;99601.80;106674;1263;209812;-40
2024/03/03 05:30:48;;;;;;;37.70;17.50;;;;;;;2.04;76.57;99605.56;107436;1254;59333;-40
2024/03/03 05:33:16;;;;;;;39.50;18.80;;;;;;;2.05;76.36;99604.96;107468;1254;72221;-40
2024/03/03 05:35:43;;;;;;;33.40;17.00;;;;;;;2.05;76.38;99606.89;107430;1253;66650;-40
2024/03/03 05:38:11;;;;;;;30.00;15.30;;;;;;;2.09;76.25;99604.61;107468;1253;73313;-40
2024/03/03 05:40:39;;;;;;;37.00;15.70;;;;;;;2.15;76.02;99605.56;107465;1254;60873;-40
2024/03/03 05:43:06;;;;;;;25.70;15.10;;;;;;;2.24;75.89;99605.02;107453;1254;59625;-40
2024/03/03 05:45:34;;;;;;;35.40;16.20;;;;;;;2.27;75.62;99605.29;107481;1254;73061;-40
2024/03/03 05:48:02;;;;;;;29.90;15.90;;;;;;;2.29;75.59;99605.61;107446;1256;67843;-40
2024/03/03 05:50:29;;;;;;;31.60;15.40;;;;;;;2.32;75.37;99602.95;107497;1259;72693;-39
2024/03/03 05:52:57;;;;;;;29.70;15.50;;;;;;;2.32;75.22;99605.06;107471;1254;60843;-39
2024/03/03 05:55:25;;;;;;;29.50;14.10;;;;;;;2.32;74.92;99602.78;107435;1259;59635;-39
2024/03/03 05:57:52;;;;;;;31.00;14.70;;;;;;;2.32;74.71;99602.23;107344;1253;73024;-39
2024/03/03 06:00:20;;;;;;;28.40;14.90;;;;;;;2.32;74.71;99603.27;107388;1253;67608;-39
2024/03/03 06:02:47;;;;;;;34.40;15.70;;;;;;;2.30;75.05;99601.54;107403;1256;71416;-39
2024/03/03 06:05:15;;;;;;;35.30;16.00;;;;;;;2.27;74.83;99598.42;107490;1253;59652;-40
2024/03/03 06:07:42;;;;;;;30.20;15.10;;;;;;;2.22;74.71;99600.84;107497;1254;59990;-40
2024/03/03 06:10:10;;;;;;;34.20;15.50;;;;;;;2.23;74.90;99602.38;107459;1253;73063;-39
2024/03/03 06:12:37;;;;;;;32.40;15.80;;;;;;;2.26;75.22;99602.80;107447;1253;67860;-39
2024/03/03 06:15:05;;;;;;;29.70;15.20;;;;;;;2.30;75.29;99603.61;107451;1257;72718;-39
2024/03/03 06:17:34;;;;;;;27.30;14.90;;;;;;;2.32;75.25;99606.04;107419;1253;59602;-39
2024/03/03 06:20:02;;;;;;;32.50;15.40;;;;;;;2.30;75.19;99608.38;107527;1253;60092;-39
2024/03/03 06:22:29;;;;;;;29.40;14.70;;;;;;;2.28;75.10;99609.76;107411;1254;73470;-40
2024/03/03 06:24:57;;;;;;;24.80;14.10;;;;;;;2.29;75.16;99612.35;107390;1254;68632;-40
2024/03/03 06:27:25;;;;;;;30.50;14.50;;;;;;;2.32;75.19;99617.23;107472;1254;72516;-40
2024/03/03 06:29:52;;;;;;;25.30;14.50;;;;;;;2.33;75.22;99618.31;107409;1256;59617;-39
2024/03/03 06:32:19;;;;;;;23.10;13.50;;;;;;;2.35;75.49;99615.23;107441;1254;59526;-39
2024/03/03 06:34:49;;;;;;;22.90;14.30;;;;;;;2.39;75.33;99620.23;107450;1254;73073;-40
2024/03/03 06:37:18;;;;;;;27.30;14.20;;;;;;;2.45;75.04;99619.29;107485;1254;66483;-39
2024/03/03 06:39:48;;;;;;;26.30;13.60;;;;;;;2.53;75.09;99623.95;107401;1259;72679;-40
2024/03/03 06:42:16;;;;;;;;;;;;;;;2.60;74.90;99626.80;107498;1254;59507;-40
2024/03/03 06:44:43;;;;;;;29.40;13.40;;;;;;;2.64;74.57;99622.48;107411;1254;59734;-39
2024/03/03 06:47:11;;;;;;;29.80;12.60;;;;;;;2.69;74.37;99625.16;107442;1254;71797;-39
2024/03/03 06:49:39;;;;;;;26.20;13.10;;;;;;;2.76;73.33;99621.84;107490;1254;67554;-40
2024/03/03 06:52:06;;;;;;;26.20;12.80;;;;;;;2.82;72.41;99618.02;107408;1256;72747;-40
2024/03/03 06:54:34;;;;;;;20.90;12.30;;;;;;;2.84;72.20;99619.90;107415;1254;59569;-39
2024/03/03 06:57:02;;;;;;;23.70;13.10;;;;;;;2.85;71.39;99620.39;107296;1254;60036;-40
2024/03/03 06:59:32;;;;;;;22.10;13.40;;;;;;;2.85;71.26;99621.07;107421;1254;73076;-40
2024/03/03 07:02:00;;;;;;;23.30;11.80;;;;;;;2.89;70.31;99615.84;107311;1254;67559;-40
2024/03/03 07:04:28;;;;;;;20.90;12.10;;;;;;;2.94;69.79;99620.11;107454;1258;72694;-40
2024/03/03 07:06:56;;;;;;;21.70;13.30;;;;;;;2.93;69.16;99620.77;107421;1259;59635;-40
2024/03/03 07:09:24;;;;;;;22.60;11.30;;;;;;;2.94;68.38;99618.41;107485;1254;59680;-40
2024/03/03 07:11:52;;;;;;;25.50;13.30;;;;;;;2.98;68.72;99619.33;106690;1254;1003726;-40
2024/03/03 07:14:20;;;;;;;19.90;11.80;;;;;;;3.05;67.66;99613.42;107564;1254;66637;-40
2024/03/03 07:16:48;;;;;;;22.30;11.60;;;;;;;3.15;66.83;99608.39;107429;1254;71132;-39
2024/03/03 07:19:16;;;;;;;22.20;11.60;;;;;;;3.22;66.54;99611.12;107432;1255;59625;-39
2024/03/03 07:21:43;;;;;;;16.70;9.80;;;;;;;3.29;66.50;99606.06;107416;1254;59997;-40
2024/03/03 07:24:12;;;;;;;18.60;9.60;;;;;;;3.37;65.61;99607.86;107446;1259;73112;-40
2024/03/03 07:26:39;;;;;;;20.10;9.50;;;;;;;3.41;65.02;99602.80;107454;1254;66350;-39
2024/03/03 07:29:08;;;;;;;15.70;9.00;;;;;;;3.45;63.60;99599.38;107450;1254;72770;-40
2024/03/03 07:31:36;;;;;;;19.00;8.30;;;;;;;3.48;63.63;99607.20;107441;1254;59497;-40
2024/03/03 07:34:03;;;;;;;14.90;6.90;;;;;;;3.52;62.52;99604.36;107394;1259;59606;-39
2024/03/03 07:36:31;;;;;;;14.40;6.40;;;;;;;3.56;60.88;99604.48;107421;1254;73036;-39
2024/03/03 07:38:59;;;;;;;14.00;6.70;;;;;;;3.55;61.09;99609.48;107433;1254;67565;-40
2024/03/03 07:41:27;;;;;;;14.90;6.90;;;;;;;3.54;60.90;99611.31;107408;1254;72969;-39
2024/03/03 07:43:54;;;;;;;12.10;7.20;;;;;;;3.54;60.68;99614.13;107419;1254;59759;-39
2024/03/03 07:46:22;;;;;;;15.00;7.10;;;;;;;3.53;60.76;99614.80;107438;1254;60030;-40
2024/03/03 07:48:49;;;;;;;10.90;6.80;;;;;;;3.51;60.49;99616.08;107411;1254;73018;-40
2024/03/03 07:51:19;;;;;;;10.60;7.20;;;;;;;3.44;60.12;99618.87;107383;1254;67764;-40
2024/03/03 07:53:47;;;;;;;15.90;6.80;;;;;;;3.39;60.82;99621.08;107449;1254;72709;-40
2024/03/03 07:56:16;;;;;;;11.00;6.70;;;;;;;3.40;60.90;99618.59;107408;1257;59625;-40
2024/03/03 07:58:44;;;;;;;12.50;6.10;;;;;;;3.43;61.21;99618.36;107424;1254;59503;-40
2024/03/03 08:01:11;;;;;;;10.50;6.20;;;;;;;3.46;61.00;99615.51;107450;1254;71859;-40
2024/03/03 08:03:39;;;;;;;11.20;6.00;;;;;;;3.51;60.94;99615.91;107406;1254;67718;-40
2024/03/03 08:06:06;;;;;;;10.40;6.10;;;;;;;3.56;60.40;99612.04;107426;1257;72970;-39
2024/03/03 08:08:34;;;;;;;12.80;6.40;;;;;;;3.58;60.05;99610.77;107392;1259;59731;-39
2024/03/03 08:11:01;;;;;;;16.60;5.70;;;;;;;3.59;59.72;99609.52;107432;1257;60086;-40
2024/03/03 08:13:29;;;;;;;10.60;5.80;;;;;;;3.62;60.14;99605.00;107422;1254;71745;-39
2024/03/03 08:15:58;;;;;;;11.40;4.90;;;;;;;3.68;60.21;99606.90;107285;1254;69847;-39
2024/03/03 08:18:25;;;;;;;15.40;5.90;;;;;;;3.76;60.14;99607.33;107336;1256;72744;-39
2024/03/03 08:20:53;;;;;;;10.40;5.40;;;;;;;3.88;59.72;99603.84;107332;1254;59457;-40
2024/03/03 08:23:20;;;;;;;10.90;5.70;;;;;;;3.97;58.89;99609.19;107359;1254;59483;-39
2024/03/03 08:25:48;;;;;;;8.80;5.60;;;;;;;4.04;58.96;99610.12;107276;1254;73101;-39
2024/03/03 08:28:15;;;;;;;11.90;5.70;;;;;;;4.12;58.75;99608.73;107363;1254;66270;-39
2024/03/03 08:30:43;;;;;;;7.50;5.00;;;;;;;4.20;58.43;99606.45;107350;1259;72642;-39
2024/03/03 08:33:11;;;;;;;18.50;6.50;;;;;;;4.28;58.28;99610.21;107407;1254;59642;-39
2024/03/03 08:35:39;;;;;;;19.10;8.60;;;;;;;4.32;57.54;99610.54;107421;1254;59622;-39
2024/03/03 08:38:06;;;;;;;15.60;7.40;;;;;;;4.31;57.69;99610.28;107416;1254;73020;-40
2024/03/03 08:40:34;;;;;;;20.30;10.40;;;;;;;4.30;58.09;99610.80;107406;1254;67895;-39
2024/03/03 08:43:03;;;;;;;8.40;5.60;;;;;;;4.27;57.48;99608.95;107366;1255;72706;-39
2024/03/03 08:45:30;;;;;;;12.80;5.50;;;;;;;4.20;57.69;99612.20;107413;1254;59595;-39
2024/03/03 08:47:58;;;;;;;10.80;7.10;;;;;;;4.14;57.80;99615.02;107433;1254;62144;-39
2024/03/03 08:50:25;;;;;;;12.90;6.10;;;;;;;4.08;58.07;99618.23;107442;1259;73120;-40
2024/03/03 08:52:53;;;;;;;12.20;5.50;;;;;;;4.02;57.89;99624.08;107465;1254;67773;-39
2024/03/03 08:55:21;;;;;;;15.30;5.70;;;;;;;3.96;58.15;99623.06;107419;1255;73119;-39
2024/03/03 08:57:49;;;;;;;11.40;5.70;;;;;;;3.89;58.59;99620.83;107415;1255;59628;-39
2024/03/03 09:00:17;;;;;;;11.00;5.90;;;;;;;3.85;58.68;99622.64;107417;1254;60033;-40
2024/03/03 09:02:45;;;;;;;11.20;6.00;;;;;;;3.82;58.94;99620.95;107438;1254;71792;-39
2024/03/03 09:05:12;;;;;;;14.90;5.70;;;;;;;3.80;59.24;99620.15;107403;1259;68114;-39
2024/03/03 09:07:40;;;;;;;10.00;5.60;;;;;;;3.79;58.61;99618.30;107400;1256;72683;-39
2024/03/03 09:10:08;;;;;;;13.60;5.90;;;;;;;3.77;58.58;99613.17;107429;1256;59750;-40
2024/03/03 09:12:35;;;;;;;11.60;5.70;;;;;;;3.76;58.56;99616.83;107452;1254;59221;-40
2024/03/03 09:15:03;;;;;;;10.40;5.30;;;;;;;3.77;58.57;99616.11;107426;1254;73399;-40
2024/03/03 09:17:31;;;;;;;13.10;5.50;;;;;;;3.77;58.52;99611.44;107383;1257;66426;-39
2024/03/03 09:19:59;;;;;;;9.70;5.30;;;;;;;3.77;58.79;99616.02;107357;1257;72941;-39
2024/03/03 09:22:26;;;;;;;8.30;5.10;;;;;;;3.78;58.91;99613.77;107276;1256;60451;-39
2024/03/03 09:24:54;;;;;;;12.60;5.80;;;;;;;3.83;59.02;99616.23;107363;1254;60322;-39
2024/03/03 09:27:24;;;;;;;10.10;5.20;;;;;;;3.91;58.97;99618.46;107335;1254;73021;-40
2024/03/03 09:29:52;;;;;;;15.30;5.50;;;;;;;3.99;58.71;99614.55;107388;1259;66191;-40
2024/03/03 09:32:20;;;;;;;14.70;5.90;;;;;;;4.04;58.16;99620.98;107386;1254;72715;-40
2024/03/03 09:34:47;;;;;;;10.10;5.30;;;;;;;4.08;58.38;99617.74;107358;1255;60527;-40
2024/03/03 09:37:15;;;;;;;9.10;5.40;;;;;;;4.16;57.86;99619.14;107407;1254;62059;-39
2024/03/03 09:39:42;;;;;;;11.40;6.00;;;;;;;4.28;57.76;99622.24;107357;1255;73967;-39
2024/03/03 09:42:10;;;;;;;11.20;6.70;;;;;;;4.41;56.96;99617.88;107358;1256;67910;-39
2024/03/03 09:44:45;;;;;;;10.50;5.70;;;;;;;4.51;56.74;99611.39;107295;1259;72169;-40
2024/03/03 09:47:13;;;;;;;15.40;5.70;;;;;;;4.73;56.22;99615.14;107371;1256;60319;-40
2024/03/03 09:49:44;;;;;;;9.20;5.00;;;;;;;4.89;55.59;99620.95;107370;1254;60425;-40
2024/03/03 09:52:14;;;;;;;13.60;5.30;;;;;;;5.02;55.09;99619.30;107283;1255;76105;-40
2024/03/03 09:54:42;;;;;;;9.70;5.50;;;;;;;5.14;55.21;99620.56;107426;1254;67571;-39
2024/03/03 09:57:13;;;;;;;14.30;6.00;;;;;;;5.35;55.27;99614.70;107398;1256;70808;-40
2024/03/03 09:59:41;;;;;;;13.50;5.70;;;;;;;5.55;54.75;99614.54;107346;1256;59388;-40
2024/03/03 10:02:16;;;;;;;8.20;5.40;;;;;;;5.74;54.41;99612.65;107347;1254;61132;-40
2024/03/03 10:04:46;;;;;;;17.00;6.30;;;;;;;5.90;53.28;99613.48;107407;1255;73866;-40
2024/03/03 10:07:24;;;;;;;12.90;5.80;;;;;;;5.97;52.72;99615.42;107285;1256;65809;-40
2024/03/03 10:10:21;;;;;;;9.60;5.40;;;;;;;6.00;52.53;99613.55;107370;1257;71559;-41
2024/03/03 10:12:49;;;;;;;10.90;5.60;;;;;;;6.11;52.22;99611.39;107367;1256;60523;-40
2024/03/03 10:15:17;;;;;;;14.60;5.30;;;;;;;6.16;51.73;99608.89;107305;1256;60410;-40
2024/03/03 10:17:45;;;;;;;9.70;5.90;;;;;;;6.14;51.86;99607.36;107397;1257;73072;-40
2024/03/03 10:20:13;;;;;;;9.70;4.80;;;;;;;6.16;52.08;99605.83;107370;1255;70202;-40
2024/03/03 10:22:41;;;;;;;9.30;5.30;;;;;;;6.19;52.42;99607.02;107369;1256;70817;-40
2024/03/03 10:25:15;;;;;;;9.10;5.60;;;;;;;6.26;52.64;99608.38;107133;1261;60476;-40
2024/03/03 10:27:44;;;;;;;12.60;5.50;;;;;;;6.35;52.44;99605.29;107338;1254;61308;-40
2024/03/03 10:30:14;;;;;;;12.80;5.30;;;;;;;6.43;51.91;99605.52;107329;1254;72699;-40
2024/03/03 10:32:42;;;;;;;;;;;;;;;6.44;51.29;99601.08;107411;1254;66555;-40
2024/03/03 10:35:13;;;;;;;16.10;5.80;;;;;;;6.31;51.11;99598.56;105148;1255;1003652;-40
2024/03/03 10:37:59;;;;;;;10.70;5.60;;;;;;;6.17;51.69;99600.72;107329;1259;60338;-40
2024/03/03 10:40:26;;;;;;;11.20;5.50;;;;;;;6.16;52.18;99599.88;107384;1257;60435;-40
2024/03/03 10:42:57;;;;;;;12.40;5.40;;;;;;;6.24;51.98;99598.22;107330;1257;72535;-40
2024/03/03 10:45:25;;;;;;;21.10;6.40;;;;;;;6.40;52.02;99600.09;107354;1257;70179;-40
2024/03/03 10:47:52;;;;;;;15.40;6.40;;;;;;;6.58;50.94;99597.68;107361;1257;71822;-40
2024/03/03 10:50:21;;;;;;;16.70;6.30;;;;;;;6.64;50.75;99597.38;107340;1259;59777;-40
2024/03/03 10:52:51;;;;;;;12.90;5.90;;;;;;;6.70;50.65;99593.29;107406;1254;60161;-41
2024/03/03 10:55:18;;;;;;;13.00;6.30;;;;;;;6.74;50.56;99594.05;107322;1259;73986;-39
2024/03/03 10:57:46;;;;;;;11.10;6.10;;;;;;;6.86;50.79;99591.64;107274;1257;66269;-39
2024/03/03 11:00:16;;;;;;;20.50;6.10;;;;;;;7.06;50.42;99592.85;107267;1255;73105;-40
2024/03/03 11:02:44;;;;;;;15.00;5.80;;;;;;;7.24;49.80;99585.96;107259;1257;60536;-39
2024/03/03 11:05:12;;;;;;;50.40;25.30;;;;;;;7.28;49.60;99588.88;107338;1257;60290;-39
2024/03/03 11:07:40;;;;;;;11.70;6.50;;;;;;;7.21;49.79;99588.56;107393;1254;73941;-40
2024/03/03 11:10:07;;;;;;;9.90;5.20;;;;;;;7.12;49.90;99591.14;107294;1254;67488;-40
2024/03/03 11:12:36;;;;;;;13.80;5.60;;;;;;;7.06;49.79;99589.98;107332;1256;71011;-40
2024/03/03 11:15:04;;;;;;;15.20;6.50;;;;;;;6.99;49.57;99587.91;107359;1254;60479;-41
2024/03/03 11:17:35;;;;;;;18.80;6.20;;;;;;;6.91;50.11;99586.54;107465;1256;60320;-40
2024/03/03 11:20:04;;;;;;;16.80;6.20;;;;;;;6.87;50.39;99586.48;107245;1257;74157;-40
2024/03/03 11:22:35;;;;;;;16.50;6.40;;;;;;;6.85;49.90;99583.07;107368;1257;66770;-40
2024/03/03 11:25:05;;;;;;;18.90;6.30;;;;;;;6.81;50.27;99583.02;107351;1254;72114;-40